East Williamson, New York
Current Conditions -  °F | °C
As of 3:54 AM on Saturday 25 Oct 2014 (Local Time) from KROC Reporting Station
Haze Haze  
Wind Chill: 45°   Ceiling: 4000
Heat Index: 47°   Visibility: 6mi
Dew Point: 45°   Wind: 5mph
Humidity: 93%   Direction: 240°WSW
Pressure: 29.88"   Gusts: NA
Location:  43.23°N, 77.15°W
Report Text: KROC 250754Z 24004KT 6SM BR BKN040 OVC060 08/07 A2988 RMK AO2 SLP122 T00830072
Loading
Personal Weather Stations






























Interactive Weather Map
Tropical Storm Tracking
New forecast layout! Learn more

10-Day Weather Forecast

Advertisements
Track Severe Weather on mobile